sensor_id;sensor_type;location;lat;lon;timestamp;pressure;altitude;pressure_sealevel;temperature
24714;BMP280;12820;51.580;5.010;2023-02-26T00:01:15;101859.38;;;4.38
24714;BMP280;12820;51.580;5.010;2023-02-26T00:06:18;101870.06;;;4.34
24714;BMP280;12820;51.580;5.010;2023-02-26T00:11:21;101876.63;;;4.32
24714;BMP280;12820;51.580;5.010;2023-02-26T00:16:33;101877.34;;;4.28
24714;BMP280;12820;51.580;5.010;2023-02-26T00:21:36;101882.25;;;4.25
24714;BMP280;12820;51.580;5.010;2023-02-26T00:26:38;101892.09;;;4.23
24714;BMP280;12820;51.580;5.010;2023-02-26T00:31:41;101892.03;;;4.20
24714;BMP280;12820;51.580;5.010;2023-02-26T00:36:45;101906.16;;;4.21
24714;BMP280;12820;51.580;5.010;2023-02-26T00:41:49;101915.41;;;4.25
24714;BMP280;12820;51.580;5.010;2023-02-26T00:47:04;101923.84;;;4.29
24714;BMP280;12820;51.580;5.010;2023-02-26T00:52:14;101934.88;;;4.39
24714;BMP280;12820;51.580;5.010;2023-02-26T00:57:20;101929.22;;;4.44
24714;BMP280;12820;51.580;5.010;2023-02-26T01:02:22;101927.59;;;4.46
24714;BMP280;12820;51.580;5.010;2023-02-26T01:07:25;101929.28;;;4.47
24714;BMP280;12820;51.580;5.010;2023-02-26T01:12:29;101928.56;;;4.51
24714;BMP280;12820;51.580;5.010;2023-02-26T01:17:48;101937.00;;;4.54
24714;BMP280;12820;51.580;5.010;2023-02-26T01:23:08;101932.06;;;4.57
24714;BMP280;12820;51.580;5.010;2023-02-26T01:28:13;101937.97;;;4.60
24714;BMP280;12820;51.580;5.010;2023-02-26T01:33:21;101956.28;;;4.62
24714;BMP280;12820;51.580;5.010;2023-02-26T01:48:56;101963.41;;;4.51
24714;BMP280;12820;51.580;5.010;2023-02-26T01:53:58;101979.06;;;4.47
24714;BMP280;12820;51.580;5.010;2023-02-26T01:59:03;101979.75;;;4.42
24714;BMP280;12820;51.580;5.010;2023-02-26T02:04:10;101975.47;;;4.36
24714;BMP280;12820;51.580;5.010;2023-02-26T02:09:13;101991.06;;;4.31
24714;BMP280;12820;51.580;5.010;2023-02-26T02:30:33;102004.66;;;4.14
24714;BMP280;12820;51.580;5.010;2023-02-26T02:35:40;102015.28;;;4.09
24714;BMP280;12820;51.580;5.010;2023-02-26T02:40:52;102011.00;;;4.05
24714;BMP280;12820;51.580;5.010;2023-02-26T02:46:20;102016.69;;;4.01
24714;BMP280;12820;51.580;5.010;2023-02-26T02:51:39;102032.41;;;4.00
24714;BMP280;12820;51.580;5.010;2023-02-26T02:56:52;102024.75;;;3.94
24714;BMP280;12820;51.580;5.010;2023-02-26T03:02:09;102027.16;;;3.91
24714;BMP280;12820;51.580;5.010;2023-02-26T03:07:12;102042.00;;;3.89
24714;BMP280;12820;51.580;5.010;2023-02-26T03:12:15;102036.91;;;3.86
24714;BMP280;12820;51.580;5.010;2023-02-26T03:17:59;102049.22;;;3.81
24714;BMP280;12820;51.580;5.010;2023-02-26T03:23:09;102071.44;;;3.77
24714;BMP280;12820;51.580;5.010;2023-02-26T03:28:44;102065.53;;;3.73
24714;BMP280;12820;51.580;5.010;2023-02-26T03:33:57;102067.03;;;3.69
24714;BMP280;12820;51.580;5.010;2023-02-26T03:39:04;102085.16;;;3.66
24714;BMP280;12820;51.580;5.010;2023-02-26T03:44:36;102085.06;;;3.63
24714;BMP280;12820;51.580;5.010;2023-02-26T03:49:43;102092.53;;;3.63
24714;BMP280;12820;51.580;5.010;2023-02-26T03:55:00;102106.53;;;3.61
24714;BMP280;12820;51.580;5.010;2023-02-26T04:00:29;102103.97;;;3.58
24714;BMP280;12820;51.580;5.010;2023-02-26T04:05:36;102105.53;;;3.56
24714;BMP280;12820;51.580;5.010;2023-02-26T04:10:43;102109.63;;;3.54
24714;BMP280;12820;51.580;5.010;2023-02-26T04:15:47;102098.78;;;3.53
24714;BMP280;12820;51.580;5.010;2023-02-26T04:20:49;102112.81;;;3.51
24714;BMP280;12820;51.580;5.010;2023-02-26T04:25:51;102127.59;;;3.48
24714;BMP280;12820;51.580;5.010;2023-02-26T04:30:53;102127.53;;;3.45
24714;BMP280;12820;51.580;5.010;2023-02-26T04:35:56;102134.06;;;3.43
24714;BMP280;12820;51.580;5.010;2023-02-26T04:40:58;102145.53;;;3.39
24714;BMP280;12820;51.580;5.010;2023-02-26T04:46:01;102151.25;;;3.37
24714;BMP280;12820;51.580;5.010;2023-02-26T04:51:04;102157.81;;;3.35
24714;BMP280;12820;51.580;5.010;2023-02-26T04:56:07;102165.13;;;3.32
24714;BMP280;12820;51.580;5.010;2023-02-26T05:01:10;102161.66;;;3.27
24714;BMP280;12820;51.580;5.010;2023-02-26T05:06:14;102172.28;;;3.23
24714;BMP280;12820;51.580;5.010;2023-02-26T05:11:16;102180.41;;;3.19
24714;BMP280;12820;51.580;5.010;2023-02-26T05:16:18;102181.88;;;3.15
24714;BMP280;12820;51.580;5.010;2023-02-26T05:21:21;102190.88;;;3.11
24714;BMP280;12820;51.580;5.010;2023-02-26T05:26:27;102189.09;;;3.07
24714;BMP280;12820;51.580;5.010;2023-02-26T05:31:29;102191.41;;;3.03
24714;BMP280;12820;51.580;5.010;2023-02-26T05:36:32;102199.47;;;2.98
24714;BMP280;12820;51.580;5.010;2023-02-26T05:41:34;102205.13;;;2.94
24714;BMP280;12820;51.580;5.010;2023-02-26T05:46:36;102217.34;;;2.89
24714;BMP280;12820;51.580;5.010;2023-02-26T05:51:38;102213.88;;;2.84
24714;BMP280;12820;51.580;5.010;2023-02-26T05:56:40;102221.97;;;2.81
24714;BMP280;12820;51.580;5.010;2023-02-26T06:01:42;102229.31;;;2.78
24714;BMP280;12820;51.580;5.010;2023-02-26T06:06:44;102234.94;;;2.74
24714;BMP280;12820;51.580;5.010;2023-02-26T06:11:47;102239.78;;;2.71
24714;BMP280;12820;51.580;5.010;2023-02-26T06:16:49;102249.59;;;2.68
24714;BMP280;12820;51.580;5.010;2023-02-26T06:21:51;102256.97;;;2.66
24714;BMP280;12820;51.580;5.010;2023-02-26T06:26:53;102269.34;;;2.65
24714;BMP280;12820;51.580;5.010;2023-02-26T06:31:55;102263.38;;;2.62
24714;BMP280;12820;51.580;5.010;2023-02-26T06:36:57;102271.66;;;2.61
24714;BMP280;12820;51.580;5.010;2023-02-26T06:41:59;102274.91;;;2.60
24714;BMP280;12820;51.580;5.010;2023-02-26T06:47:02;102294.75;;;2.60
24714;BMP280;12820;51.580;5.010;2023-02-26T06:52:04;102303.00;;;2.59
24714;BMP280;12820;51.580;5.010;2023-02-26T06:57:06;102316.25;;;2.59
24714;BMP280;12820;51.580;5.010;2023-02-26T07:02:15;102330.38;;;2.60
24714;BMP280;12820;51.580;5.010;2023-02-26T07:07:18;102351.88;;;2.61
24714;BMP280;12820;51.580;5.010;2023-02-26T07:12:20;102354.31;;;2.60
24714;BMP280;12820;51.580;5.010;2023-02-26T07:17:22;102366.00;;;2.62
24714;BMP280;12820;51.580;5.010;2023-02-26T07:22:24;102371.09;;;2.65
24714;BMP280;12820;51.580;5.010;2023-02-26T07:27:26;102379.44;;;2.67
24714;BMP280;12820;51.580;5.010;2023-02-26T07:32:31;102387.03;;;2.70
24714;BMP280;12820;51.580;5.010;2023-02-26T07:37:33;102394.66;;;2.74
24714;BMP280;12820;51.580;5.010;2023-02-26T07:42:35;102402.31;;;2.79
24714;BMP280;12820;51.580;5.010;2023-02-26T07:47:37;102414.91;;;2.83
24714;BMP280;12820;51.580;5.010;2023-02-26T07:52:39;102424.25;;;2.88
24714;BMP280;12820;51.580;5.010;2023-02-26T07:57:42;102417.81;;;2.93
24714;BMP280;12820;51.580;5.010;2023-02-26T08:02:44;102427.19;;;3.00
24714;BMP280;12820;51.580;5.010;2023-02-26T08:07:46;102433.34;;;3.08
24714;BMP280;12820;51.580;5.010;2023-02-26T08:12:48;102438.00;;;3.20
24714;BMP280;12820;51.580;5.010;2023-02-26T08:17:52;102446.59;;;3.28
24714;BMP280;12820;51.580;5.010;2023-02-26T08:22:54;102458.41;;;3.34
24714;BMP280;12820;51.580;5.010;2023-02-26T08:27:56;102453.69;;;3.39
24714;BMP280;12820;51.580;5.010;2023-02-26T08:32:59;102454.03;;;3.48
24714;BMP280;12820;51.580;5.010;2023-02-26T08:38:01;102465.09;;;3.54
24714;BMP280;12820;51.580;5.010;2023-02-26T08:43:03;102479.44;;;3.61
24714;BMP280;12820;51.580;5.010;2023-02-26T08:48:06;102483.00;;;3.68
24714;BMP280;12820;51.580;5.010;2023-02-26T08:53:10;102485.00;;;3.76
24714;BMP280;12820;51.580;5.010;2023-02-26T08:58:12;102489.41;;;3.83
24714;BMP280;12820;51.580;5.010;2023-02-26T09:03:14;102495.53;;;3.90
24714;BMP280;12820;51.580;5.010;2023-02-26T09:08:17;102503.22;;;3.96
24714;BMP280;12820;51.580;5.010;2023-02-26T09:13:21;102508.53;;;4.05
24714;BMP280;12820;51.580;5.010;2023-02-26T09:18:23;102510.41;;;4.10
24714;BMP280;12820;51.580;5.010;2023-02-26T09:23:26;102520.69;;;4.19
24714;BMP280;12820;51.580;5.010;2023-02-26T09:28:28;102527.63;;;4.26
24714;BMP280;12820;51.580;5.010;2023-02-26T09:33:30;102523.03;;;4.36
24714;BMP280;12820;51.580;5.010;2023-02-26T09:38:32;102537.69;;;4.50
24714;BMP280;12820;51.580;5.010;2023-02-26T09:43:58;102529.84;;;4.63
24714;BMP280;12820;51.580;5.010;2023-02-26T09:54:30;102544.88;;;4.89
24714;BMP280;12820;51.580;5.010;2023-02-26T09:59:34;102552.00;;;5.01
24714;BMP280;12820;51.580;5.010;2023-02-26T10:10:08;102571.28;;;5.30
24714;BMP280;12820;51.580;5.010;2023-02-26T10:15:29;102577.44;;;5.39
24714;BMP280;12820;51.580;5.010;2023-02-26T10:36:36;102573.41;;;5.91
24714;BMP280;12820;51.580;5.010;2023-02-26T10:41:39;102576.31;;;6.04
24714;BMP280;12820;51.580;5.010;2023-02-26T10:46:48;102579.06;;;6.11
24714;BMP280;12820;51.580;5.010;2023-02-26T10:51:55;102576.00;;;6.20
24714;BMP280;12820;51.580;5.010;2023-02-26T10:56:58;102579.63;;;6.29
24714;BMP280;12820;51.580;5.010;2023-02-26T11:02:00;102583.09;;;6.34
24714;BMP280;12820;51.580;5.010;2023-02-26T11:07:04;102595.13;;;6.45
24714;BMP280;12820;51.580;5.010;2023-02-26T11:17:23;102592.25;;;7.18
24714;BMP280;12820;51.580;5.010;2023-02-26T11:22:32;102592.84;;;7.71
24714;BMP280;12820;51.580;5.010;2023-02-26T11:27:37;102587.09;;;8.43
24714;BMP280;12820;51.580;5.010;2023-02-26T11:32:39;102586.47;;;10.94
24714;BMP280;12820;51.580;5.010;2023-02-26T11:37:46;102562.22;;;13.73
24714;BMP280;12820;51.580;5.010;2023-02-26T11:42:52;102558.84;;;15.82
24714;BMP280;12820;51.580;5.010;2023-02-26T11:48:02;102549.56;;;17.28
24714;BMP280;12820;51.580;5.010;2023-02-26T11:53:15;102550.44;;;18.27
24714;BMP280;12820;51.580;5.010;2023-02-26T11:58:22;102533.66;;;19.02
24714;BMP280;12820;51.580;5.010;2023-02-26T12:03:32;102538.22;;;19.60
24714;BMP280;12820;51.580;5.010;2023-02-26T12:08:37;102522.84;;;20.26
24714;BMP280;12820;51.580;5.010;2023-02-26T12:13:59;102524.00;;;20.75
24714;BMP280;12820;51.580;5.010;2023-02-26T12:35:33;102507.78;;;22.06
24714;BMP280;12820;51.580;5.010;2023-02-26T12:46:15;102521.69;;;20.38
24714;BMP280;12820;51.580;5.010;2023-02-26T13:12:41;102510.03;;;18.11
24714;BMP280;12820;51.580;5.010;2023-02-26T13:22:53;102512.16;;;21.28
24714;BMP280;12820;51.580;5.010;2023-02-26T13:27:58;102503.31;;;22.80
24714;BMP280;12820;51.580;5.010;2023-02-26T13:33:02;102495.47;;;23.86
24714;BMP280;12820;51.580;5.010;2023-02-26T13:38:22;102496.38;;;24.80
24714;BMP280;12820;51.580;5.010;2023-02-26T13:43:41;102487.56;;;26.19
24714;BMP280;12820;51.580;5.010;2023-02-26T13:54:01;102477.31;;;28.24
24714;BMP280;12820;51.580;5.010;2023-02-26T14:14:45;102470.31;;;32.23
24714;BMP280;12820;51.580;5.010;2023-02-26T14:25:33;102459.88;;;32.45
24714;BMP280;12820;51.580;5.010;2023-02-26T14:30:41;102461.41;;;32.26
24714;BMP280;12820;51.580;5.010;2023-02-26T14:35:49;102463.69;;;32.19
24714;BMP280;12820;51.580;5.010;2023-02-26T14:41:01;102462.22;;;31.39
24714;BMP280;12820;51.580;5.010;2023-02-26T14:46:07;102459.91;;;31.58
24714;BMP280;12820;51.580;5.010;2023-02-26T14:56:51;102451.66;;;31.30
24714;BMP280;12820;51.580;5.010;2023-02-26T15:07:27;102453.84;;;30.31
24714;BMP280;12820;51.580;5.010;2023-02-26T15:12:35;102460.78;;;29.45
24714;BMP280;12820;51.580;5.010;2023-02-26T15:23:22;102458.47;;;28.22
24714;BMP280;12820;51.580;5.010;2023-02-26T15:28:31;102460.72;;;27.72
24714;BMP280;12820;51.580;5.010;2023-02-26T15:33:34;102466.41;;;27.35
24714;BMP280;12820;51.580;5.010;2023-02-26T15:38:41;102464.38;;;26.96
24714;BMP280;12820;51.580;5.010;2023-02-26T15:43:49;102468.53;;;26.53
24714;BMP280;12820;51.580;5.010;2023-02-26T15:48:57;102472.06;;;25.71
24714;BMP280;12820;51.580;5.010;2023-02-26T15:54:01;102485.06;;;23.30
24714;BMP280;12820;51.580;5.010;2023-02-26T15:59:13;102495.78;;;21.33
24714;BMP280;12820;51.580;5.010;2023-02-26T16:04:19;102505.81;;;19.96
24714;BMP280;12820;51.580;5.010;2023-02-26T16:09:26;102503.78;;;18.68
24714;BMP280;12820;51.580;5.010;2023-02-26T16:14:31;102514.28;;;17.62
24714;BMP280;12820;51.580;5.010;2023-02-26T16:19:41;102520.69;;;16.71
24714;BMP280;12820;51.580;5.010;2023-02-26T16:24:49;102519.94;;;15.87
24714;BMP280;12820;51.580;5.010;2023-02-26T16:29:54;102516.31;;;15.12
24714;BMP280;12820;51.580;5.010;2023-02-26T16:35:09;102522.53;;;14.41
24714;BMP280;12820;51.580;5.010;2023-02-26T16:40:24;102530.22;;;13.74
24714;BMP280;12820;51.580;5.010;2023-02-26T16:50:37;102540.94;;;12.65
24714;BMP280;12820;51.580;5.010;2023-02-26T16:55:40;102554.09;;;12.20
24714;BMP280;12820;51.580;5.010;2023-02-26T17:00:44;102558.84;;;11.78
24714;BMP280;12820;51.580;5.010;2023-02-26T17:06:04;102576.97;;;11.40
24714;BMP280;12820;51.580;5.010;2023-02-26T17:11:08;102584.13;;;11.07
24714;BMP280;12820;51.580;5.010;2023-02-26T17:16:18;102592.91;;;10.73
24714;BMP280;12820;51.580;5.010;2023-02-26T17:21:23;102601.78;;;10.46
24714;BMP280;12820;51.580;5.010;2023-02-26T17:26:26;102598.84;;;10.20
24714;BMP280;12820;51.580;5.010;2023-02-26T17:31:28;102605.16;;;9.94
24714;BMP280;12820;51.580;5.010;2023-02-26T17:36:30;102611.44;;;9.72
24714;BMP280;12820;51.580;5.010;2023-02-26T17:41:32;102618.59;;;9.52
24714;BMP280;12820;51.580;5.010;2023-02-26T17:46:35;102615.69;;;9.31
24714;BMP280;12820;51.580;5.010;2023-02-26T17:51:37;102630.41;;;9.14
24714;BMP280;12820;51.580;5.010;2023-02-26T17:56:39;102625.84;;;8.97
24714;BMP280;12820;51.580;5.010;2023-02-26T18:01:43;102626.34;;;8.80
24714;BMP280;12820;51.580;5.010;2023-02-26T18:06:45;102641.06;;;8.65
24714;BMP280;12820;51.580;5.010;2023-02-26T18:11:47;102647.50;;;8.54
24714;BMP280;12820;51.580;5.010;2023-02-26T18:16:50;102642.13;;;8.38
24714;BMP280;12820;51.580;5.010;2023-02-26T18:21:52;102656.84;;;8.27
24714;BMP280;12820;51.580;5.010;2023-02-26T18:26:54;102654.03;;;8.14
24714;BMP280;12820;51.580;5.010;2023-02-26T18:31:56;102654.56;;;8.02
24714;BMP280;12820;51.580;5.010;2023-02-26T18:37:01;102661.78;;;7.91
24714;BMP280;12820;51.580;5.010;2023-02-26T18:42:05;102663.22;;;7.83
24714;BMP280;12820;51.580;5.010;2023-02-26T18:47:07;102677.09;;;7.71
24714;BMP280;12820;51.580;5.010;2023-02-26T18:52:11;102674.31;;;7.61
24714;BMP280;12820;51.580;5.010;2023-02-26T18:57:13;102678.22;;;7.51
24714;BMP280;12820;51.580;5.010;2023-02-26T19:02:16;102676.28;;;7.42
24714;BMP280;12820;51.580;5.010;2023-02-26T19:07:18;102688.59;;;7.34
24714;BMP280;12820;51.580;5.010;2023-02-26T19:12:20;102699.16;;;7.26
24714;BMP280;12820;51.580;5.010;2023-02-26T19:17:24;102700.63;;;7.18
24714;BMP280;12820;51.580;5.010;2023-02-26T19:22:26;102697.91;;;7.11
24714;BMP280;12820;51.580;5.010;2023-02-26T19:27:28;102708.53;;;7.04
24714;BMP280;12820;51.580;5.010;2023-02-26T19:32:30;102713.31;;;6.97
24714;BMP280;12820;51.580;5.010;2023-02-26T19:37:32;102718.09;;;6.90
24714;BMP280;12820;51.580;5.010;2023-02-26T19:42:35;102723.72;;;6.83
24714;BMP280;12820;51.580;5.010;2023-02-26T19:47:37;102732.69;;;6.76
24714;BMP280;12820;51.580;5.010;2023-02-26T19:52:39;102728.25;;;6.68
24714;BMP280;12820;51.580;5.010;2023-02-26T19:57:42;102736.34;;;6.61
24714;BMP280;12820;51.580;5.010;2023-02-26T20:02:44;102733.72;;;6.57
24714;BMP280;12820;51.580;5.010;2023-02-26T20:07:46;102745.97;;;6.50
24714;BMP280;12820;51.580;5.010;2023-02-26T20:12:49;102743.28;;;6.44
24714;BMP280;12820;51.580;5.010;2023-02-26T20:17:51;102746.41;;;6.38
24714;BMP280;12820;51.580;5.010;2023-02-26T20:22:53;102754.50;;;6.32
24714;BMP280;12820;51.580;5.010;2023-02-26T20:27:55;102760.13;;;6.26
24714;BMP280;12820;51.580;5.010;2023-02-26T20:32:57;102750.72;;;6.18
24714;BMP280;12820;51.580;5.010;2023-02-26T20:38:00;102757.19;;;6.13
24714;BMP280;12820;51.580;5.010;2023-02-26T20:43:03;102756.97;;;6.06
24714;BMP280;12820;51.580;5.010;2023-02-26T20:48:06;102761.81;;;6.02
24714;BMP280;12820;51.580;5.010;2023-02-26T20:53:08;102765.66;;;5.94
24714;BMP280;12820;51.580;5.010;2023-02-26T20:58:10;102768.78;;;5.88
24714;BMP280;12820;51.580;5.010;2023-02-26T21:03:12;102776.94;;;5.83
24714;BMP280;12820;51.580;5.010;2023-02-26T21:08:14;102777.50;;;5.76
24714;BMP280;12820;51.580;5.010;2023-02-26T21:13:17;102783.19;;;5.72
24714;BMP280;12820;51.580;5.010;2023-02-26T21:18:19;102787.91;;;5.65
24714;BMP280;12820;51.580;5.010;2023-02-26T21:23:21;102790.16;;;5.59
24714;BMP280;12820;51.580;5.010;2023-02-26T21:28:23;102796.56;;;5.53
24714;BMP280;12820;51.580;5.010;2023-02-26T21:33:26;102801.31;;;5.47
24714;BMP280;12820;51.580;5.010;2023-02-26T21:38:28;102797.81;;;5.42
24714;BMP280;12820;51.580;5.010;2023-02-26T21:43:30;102810.13;;;5.38
24714;BMP280;12820;51.580;5.010;2023-02-26T21:48:32;102806.53;;;5.31
24714;BMP280;12820;51.580;5.010;2023-02-26T21:53:34;102810.50;;;5.27
24714;BMP280;12820;51.580;5.010;2023-02-26T21:58:36;102803.59;;;5.20
24714;BMP280;12820;51.580;5.010;2023-02-26T22:03:38;102813.41;;;5.15
24714;BMP280;12820;51.580;5.010;2023-02-26T22:08:40;102814.00;;;5.10
24714;BMP280;12820;51.580;5.010;2023-02-26T22:13:42;102820.47;;;5.05
24714;BMP280;12820;51.580;5.010;2023-02-26T22:18:44;102821.94;;;5.00
24714;BMP280;12820;51.580;5.010;2023-02-26T22:23:46;102825.88;;;4.96
24714;BMP280;12820;51.580;5.010;2023-02-26T22:28:48;102826.41;;;4.89
24714;BMP280;12820;51.580;5.010;2023-02-26T22:33:51;102834.56;;;4.85
24714;BMP280;12820;51.580;5.010;2023-02-26T22:38:53;102821.88;;;4.79
24714;BMP280;12820;51.580;5.010;2023-02-26T22:43:55;102816.66;;;4.73
24714;BMP280;12820;51.580;5.010;2023-02-26T22:48:57;102825.72;;;4.71
24714;BMP280;12820;51.580;5.010;2023-02-26T22:54:00;102818.84;;;4.66
24714;BMP280;12820;51.580;5.010;2023-02-26T22:59:02;102821.16;;;4.61
24714;BMP280;12820;51.580;5.010;2023-02-26T23:04:04;102817.63;;;4.57
24714;BMP280;12820;51.580;5.010;2023-02-26T23:09:06;102829.09;;;4.53
24714;BMP280;12820;51.580;5.010;2023-02-26T23:14:08;102839.00;;;4.52
24714;BMP280;12820;51.580;5.010;2023-02-26T23:19:11;102843.84;;;4.49
24714;BMP280;12820;51.580;5.010;2023-02-26T23:24:13;102838.03;;;4.48
24714;BMP280;12820;51.580;5.010;2023-02-26T23:29:15;102839.59;;;4.46
24714;BMP280;12820;51.580;5.010;2023-02-26T23:34:17;102847.88;;;4.45
24714;BMP280;12820;51.580;5.010;2023-02-26T23:39:19;102836.91;;;4.42
24714;BMP280;12820;51.580;5.010;2023-02-26T23:44:22;102841.78;;;4.39
24714;BMP280;12820;51.580;5.010;2023-02-26T23:49:24;102852.44;;;4.37
24714;BMP280;12820;51.580;5.010;2023-02-26T23:54:26;102853.19;;;4.34
24714;BMP280;12820;51.580;5.010;2023-02-26T23:59:28;102850.50;;;4.30
